AEZ2655 LIRI-LEPA
Flight info
| Callsign | AEZ2655 |
|---|---|
| Flight time | N/A |
| Altitude | 33000 |
| Route | SOR DCT ENSOT DCT EKPOD DCT SUPUX Z924 KUPIM DCT SUXER DCT MORSS |
| Aircraft | E190/M-SDE3GILORVW/S |
Departure
| Time | 2026-04-26 12:01 |
|---|---|
| Airport | Salerno Costa d'Amalfi Airport (LIRI) |
Arrival
| Time | N/A |
|---|---|
| Airport | Palma de Mallorca Airport (LEPA) |
| Time | Latitude | Longitude | Altitude | Speed | Heading |
|---|---|---|---|---|---|
| 2026-04-26 11:11 | 40.62063 | 14.92046 | 83 ft | 0 kts | 141° |
| 2026-04-26 11:49 | 40.62076 | 14.92031 | 84 ft | 4 kts | 129° |
| 2026-04-26 11:50 | 40.62088 | 14.92002 | 84 ft | 4 kts | 91° |
| 2026-04-26 11:50 | 40.62084 | 14.91978 | 83 ft | 0 kts | 54° |
| 2026-04-26 11:55 | 40.62085 | 14.91979 | 83 ft | 1 kts | 54° |
| 2026-04-26 11:55 | 40.62098 | 14.92003 | 85 ft | 6 kts | 54° |
| 2026-04-26 11:56 | 40.62099 | 14.92006 | 83 ft | 0 kts | 54° |
| 2026-04-26 11:57 | 40.62100 | 14.92006 | 83 ft | 0 kts | 48° |
| 2026-04-26 11:58 | 40.62102 | 14.92006 | 86 ft | 0 kts | 31° |
| 2026-04-26 11:58 | 40.62105 | 14.92005 | 83 ft | 0 kts | 10° |
| 2026-04-26 11:58 | 40.62108 | 14.92003 | 83 ft | 1 kts | 347° |
| 2026-04-26 11:58 | 40.62118 | 14.91995 | 83 ft | 3 kts | 330° |
| 2026-04-26 11:59 | 40.62148 | 14.91960 | 84 ft | 8 kts | 316° |
| 2026-04-26 11:59 | 40.62199 | 14.91898 | 83 ft | 11 kts | 321° |
| 2026-04-26 11:59 | 40.62270 | 14.91828 | 83 ft | 11 kts | 321° |
| 2026-04-26 11:59 | 40.62290 | 14.91763 | 84 ft | 5 kts | 249° |
| 2026-04-26 12:00 | 40.62274 | 14.91718 | 83 ft | 0 kts | 237° |
| 2026-04-26 12:00 | 40.62259 | 14.91695 | 84 ft | 24 kts | 230° |
| 2026-04-26 12:00 | 40.61937 | 14.91168 | 87 ft | 121 kts | 230° |
| 2026-04-26 12:01 | 40.61314 | 14.90139 | 686 ft | 158 kts | 232° |
| 2026-04-26 12:01 | 40.60545 | 14.88831 | 1455 ft | 214 kts | 232° |
| 2026-04-26 12:01 | 40.59489 | 14.87138 | 2554 ft | 267 kts | 230° |
| 2026-04-26 12:01 | 40.58112 | 14.84966 | 2512 ft | 335 kts | 231° |
| 2026-04-26 12:02 | 40.57894 | 14.84629 | 1866 ft | 40 kts | 241° |
| 2026-04-26 12:02 | 40.54817 | 14.79244 | 2662 ft | 231 kts | 226° |
| 2026-04-26 12:03 | 40.53704 | 14.77740 | 3031 ft | 229 kts | 228° |
| 2026-04-26 12:03 | 40.52613 | 14.76127 | 3468 ft | 249 kts | 230° |
| 2026-04-26 12:03 | 40.51439 | 14.74341 | 4697 ft | 265 kts | 231° |
| 2026-04-26 12:03 | 40.50224 | 14.72459 | 6105 ft | 275 kts | 231° |
| 2026-04-26 12:04 | 40.48978 | 14.70527 | 7539 ft | 280 kts | 231° |
| 2026-04-26 12:04 | 40.47711 | 14.68553 | 8927 ft | 286 kts | 231° |
| 2026-04-26 12:04 | 40.46406 | 14.66507 | 10018 ft | 297 kts | 231° |
| 2026-04-26 12:04 | 40.45048 | 14.64380 | 11095 ft | 312 kts | 232° |
| 2026-04-26 12:05 | 40.43931 | 14.61895 | 12235 ft | 321 kts | 253° |
| 2026-04-26 12:05 | 40.43704 | 14.58999 | 13588 ft | 322 kts | 275° |
| 2026-04-26 12:05 | 40.44261 | 14.56151 | 14965 ft | 325 kts | 294° |
| 2026-04-26 12:05 | 40.45460 | 14.53620 | 16330 ft | 330 kts | 305° |
| 2026-04-26 12:06 | 40.46877 | 14.51218 | 17553 ft | 335 kts | 307° |
| 2026-04-26 12:06 | 40.48278 | 14.48851 | 18653 ft | 340 kts | 306° |
| 2026-04-26 12:06 | 40.49741 | 14.46369 | 19732 ft | 347 kts | 307° |